sensor_id;sensor_type;location;lat;lon;timestamp;pressure;altitude;pressure_sealevel;temperature;humidity
22047;BME280;11187;49.412;20.956;2022-09-09T00:00:34;94776.31;;;17.02;100.00
22047;BME280;11187;49.412;20.956;2022-09-09T00:03:19;94788.47;;;17.00;100.00
22047;BME280;11187;49.412;20.956;2022-09-09T00:06:42;94790.13;;;17.01;100.00
22047;BME280;11187;49.412;20.956;2022-09-09T00:16:04;94791.91;;;17.00;100.00
22047;BME280;11187;49.412;20.956;2022-09-09T00:19:14;94806.53;;;17.01;100.00
22047;BME280;11187;49.412;20.956;2022-09-09T00:22:03;94801.25;;;17.03;100.00
22047;BME280;11187;49.412;20.956;2022-09-09T00:25:02;94802.13;;;17.03;100.00
22047;BME280;11187;49.412;20.956;2022-09-09T00:27:43;94800.41;;;17.02;100.00
22047;BME280;11187;49.412;20.956;2022-09-09T00:30:37;94808.13;;;17.04;100.00
22047;BME280;11187;49.412;20.956;2022-09-09T00:33:12;94801.25;;;17.03;100.00
22047;BME280;11187;49.412;20.956;2022-09-09T00:36:13;94802.19;;;17.02;100.00
22047;BME280;11187;49.412;20.956;2022-09-09T00:38:56;94807.34;;;17.02;100.00
22047;BME280;11187;49.412;20.956;2022-09-09T00:44:32;94804.81;;;17.00;100.00
22047;BME280;11187;49.412;20.956;2022-09-09T00:50:43;94797.06;;;17.00;100.00
22047;BME280;11187;49.412;20.956;2022-09-09T01:00:16;94799.81;;;16.97;100.00
22047;BME280;11187;49.412;20.956;2022-09-09T01:04:04;94795.63;;;16.95;100.00
22047;BME280;11187;49.412;20.956;2022-09-09T01:12:43;94793.03;;;16.95;100.00
22047;BME280;11187;49.412;20.956;2022-09-09T01:15:24;94793.03;;;16.95;100.00
22047;BME280;11187;49.412;20.956;2022-09-09T01:18:22;94806.88;;;16.94;100.00
22047;BME280;11187;49.412;20.956;2022-09-09T01:21:30;94806.09;;;16.91;100.00
22047;BME280;11187;49.412;20.956;2022-09-09T01:27:34;94813.78;;;16.93;100.00
22047;BME280;11187;49.412;20.956;2022-09-09T01:30:38;94815.50;;;16.94;100.00
22047;BME280;11187;49.412;20.956;2022-09-09T01:33:16;94817.22;;;16.94;100.00
22047;BME280;11187;49.412;20.956;2022-09-09T01:36:12;94816.31;;;16.95;100.00
22047;BME280;11187;49.412;20.956;2022-09-09T01:38:47;94819.72;;;16.95;100.00
22047;BME280;11187;49.412;20.956;2022-09-09T01:41:40;94822.25;;;16.97;100.00
22047;BME280;11187;49.412;20.956;2022-09-09T01:44:14;94831.69;;;16.98;100.00
22047;BME280;11187;49.412;20.956;2022-09-09T01:47:00;94825.59;;;16.99;100.00
22047;BME280;11187;49.412;20.956;2022-09-09T01:49:33;94830.78;;;16.99;100.00
22047;BME280;11187;49.412;20.956;2022-09-09T01:52:20;94829.03;;;16.99;100.00
22047;BME280;11187;49.412;20.956;2022-09-09T01:54:54;94829.03;;;16.99;100.00
22047;BME280;11187;49.412;20.956;2022-09-09T01:58:31;94830.69;;;17.00;100.00
22047;BME280;11187;49.412;20.956;2022-09-09T02:01:15;94825.59;;;16.99;100.00
22047;BME280;11187;49.412;20.956;2022-09-09T02:04:33;94829.91;;;16.98;100.00
22047;BME280;11187;49.412;20.956;2022-09-09T02:07:30;94837.69;;;16.98;100.00
22047;BME280;11187;49.412;20.956;2022-09-09T02:10:33;94838.59;;;16.97;100.00
22047;BME280;11187;49.412;20.956;2022-09-09T02:13:18;94833.44;;;16.97;100.00
22047;BME280;11187;49.412;20.956;2022-09-09T02:19:02;94836.19;;;16.94;100.00
22047;BME280;11187;49.412;20.956;2022-09-09T02:22:00;94836.25;;;16.93;100.00
22047;BME280;11187;49.412;20.956;2022-09-09T02:24:57;94835.41;;;16.92;100.00
22047;BME280;11187;49.412;20.956;2022-09-09T02:27:52;94842.31;;;16.91;100.00
22047;BME280;11187;49.412;20.956;2022-09-09T02:30:28;94834.53;;;16.91;100.00
22047;BME280;11187;49.412;20.956;2022-09-09T02:33:16;94844.00;;;16.93;100.00
22047;BME280;11187;49.412;20.956;2022-09-09T02:35:50;94846.59;;;16.93;100.00
22047;BME280;11187;49.412;20.956;2022-09-09T02:38:46;94856.94;;;16.93;100.00
22047;BME280;11187;49.412;20.956;2022-09-09T02:41:28;94862.94;;;16.93;100.00
22047;BME280;11187;49.412;20.956;2022-09-09T02:44:23;94851.81;;;16.91;100.00
22047;BME280;11187;49.412;20.956;2022-09-09T02:47:18;94856.09;;;16.92;100.00
22047;BME280;11187;49.412;20.956;2022-09-09T02:55:47;94862.31;;;16.88;100.00
22047;BME280;11187;49.412;20.956;2022-09-09T02:58:21;94864.06;;;16.87;100.00
22047;BME280;11187;49.412;20.956;2022-09-09T03:01:08;94863.38;;;16.84;100.00
22047;BME280;11187;49.412;20.956;2022-09-09T03:03:44;94861.75;;;16.81;100.00
22047;BME280;11187;49.412;20.956;2022-09-09T03:06:30;94858.41;;;16.79;100.00
22047;BME280;11187;49.412;20.956;2022-09-09T03:09:24;94850.69;;;16.78;100.00
22047;BME280;11187;49.412;20.956;2022-09-09T03:12:19;94858.59;;;16.75;100.00
22047;BME280;11187;49.412;20.956;2022-09-09T03:14:53;94854.47;;;16.70;100.00
22047;BME280;11187;49.412;20.956;2022-09-09T03:17:46;94856.38;;;16.67;100.00
22047;BME280;11187;49.412;20.956;2022-09-09T03:20:43;94862.44;;;16.66;100.00
22047;BME280;11187;49.412;20.956;2022-09-09T03:23:17;94859.91;;;16.64;100.00
22047;BME280;11187;49.412;20.956;2022-09-09T03:26:10;94856.66;;;16.61;100.00
22047;BME280;11187;49.412;20.956;2022-09-09T03:28:46;94860.13;;;16.60;100.00
22047;BME280;11187;49.412;20.956;2022-09-09T03:31:39;94852.47;;;16.58;100.00
22047;BME280;11187;49.412;20.956;2022-09-09T03:34:13;94862.03;;;16.56;100.00
22047;BME280;11187;49.412;20.956;2022-09-09T03:37:06;94857.84;;;16.54;100.00
22047;BME280;11187;49.412;20.956;2022-09-09T03:40:01;94862.25;;;16.52;100.00
22047;BME280;11187;49.412;20.956;2022-09-09T03:42:56;94867.41;;;16.52;100.00
22047;BME280;11187;49.412;20.956;2022-09-09T03:45:51;94865.81;;;16.49;100.00
22047;BME280;11187;49.412;20.956;2022-09-09T03:48:27;94861.53;;;16.48;100.00
22047;BME280;11187;49.412;20.956;2022-09-09T03:51:21;94870.19;;;16.47;100.00
22047;BME280;11187;49.412;20.956;2022-09-09T03:54:14;94869.44;;;16.45;100.00
22047;BME280;11187;49.412;20.956;2022-09-09T03:56:48;94871.19;;;16.44;100.00
22047;BME280;11187;49.412;20.956;2022-09-09T03:59:34;94876.34;;;16.44;100.00
22047;BME280;11187;49.412;20.956;2022-09-09T04:02:15;94876.41;;;16.43;100.00
22047;BME280;11187;49.412;20.956;2022-09-09T04:05:09;94876.47;;;16.41;100.00
22047;BME280;11187;49.412;20.956;2022-09-09T04:07:43;94875.69;;;16.39;100.00
22047;BME280;11187;49.412;20.956;2022-09-09T04:10:37;94877.44;;;16.39;100.00
22047;BME280;11187;49.412;20.956;2022-09-09T04:13:35;94880.03;;;16.39;100.00
22047;BME280;11187;49.412;20.956;2022-09-09T04:16:32;94888.72;;;16.38;100.00
22047;BME280;11187;49.412;20.956;2022-09-09T04:19:26;94881.00;;;16.36;100.00
22047;BME280;11187;49.412;20.956;2022-09-09T04:22:00;94886.19;;;16.36;100.00
22047;BME280;11187;49.412;20.956;2022-09-09T04:24:53;94886.19;;;16.36;100.00
22047;BME280;11187;49.412;20.956;2022-09-09T04:27:47;94887.94;;;16.36;100.00
22047;BME280;11187;49.412;20.956;2022-09-09T04:30:26;94888.00;;;16.34;100.00
22047;BME280;11187;49.412;20.956;2022-09-09T04:33:23;94885.47;;;16.33;100.00
22047;BME280;11187;49.412;20.956;2022-09-09T04:36:05;94898.38;;;16.33;100.00
22047;BME280;11187;49.412;20.956;2022-09-09T04:38:53;94895.94;;;16.29;100.00
22047;BME280;11187;49.412;20.956;2022-09-09T04:41:27;94893.38;;;16.29;100.00
22047;BME280;11187;49.412;20.956;2022-09-09T04:44:15;94897.69;;;16.29;100.00
22047;BME280;11187;49.412;20.956;2022-09-09T04:46:49;94904.63;;;16.28;100.00
22047;BME280;11187;49.412;20.956;2022-09-09T04:49:35;94902.09;;;16.27;100.00
22047;BME280;11187;49.412;20.956;2022-09-09T04:52:10;94901.16;;;16.28;100.00
22047;BME280;11187;49.412;20.956;2022-09-09T04:54:57;94896.94;;;16.27;100.00
22047;BME280;11187;49.412;20.956;2022-09-09T04:57:32;94900.44;;;16.26;100.00
22047;BME280;11187;49.412;20.956;2022-09-09T05:00:27;94903.91;;;16.25;100.00
22047;BME280;11187;49.412;20.956;2022-09-09T05:03:22;94905.59;;;16.26;100.00
22047;BME280;11187;49.412;20.956;2022-09-09T05:06:03;94900.47;;;16.24;100.00
22047;BME280;11187;49.412;20.956;2022-09-09T05:08:49;94903.06;;;16.24;100.00
22047;BME280;11187;49.412;20.956;2022-09-09T05:11:27;94905.72;;;16.23;100.00
22047;BME280;11187;49.412;20.956;2022-09-09T05:14:19;94913.47;;;16.23;100.00
22047;BME280;11187;49.412;20.956;2022-09-09T05:16:54;94913.47;;;16.23;100.00
22047;BME280;11187;49.412;20.956;2022-09-09T05:19:43;94914.38;;;16.22;100.00
22047;BME280;11187;49.412;20.956;2022-09-09T05:22:20;94911.84;;;16.20;100.00
22047;BME280;11187;49.412;20.956;2022-09-09T05:25:13;94910.19;;;16.19;100.00
22047;BME280;11187;49.412;20.956;2022-09-09T05:28:08;94909.31;;;16.19;100.00
22047;BME280;11187;49.412;20.956;2022-09-09T05:31:06;94918.88;;;16.17;100.00
22047;BME280;11187;49.412;20.956;2022-09-09T05:34:02;94920.72;;;16.15;100.00
22047;BME280;11187;49.412;20.956;2022-09-09T05:36:55;94922.44;;;16.14;100.00
22047;BME280;11187;49.412;20.956;2022-09-09T05:39:30;94919.84;;;16.14;100.00
22047;BME280;11187;49.412;20.956;2022-09-09T05:42:16;94913.81;;;16.15;100.00
22047;BME280;11187;49.412;20.956;2022-09-09T05:44:50;94920.72;;;16.15;100.00
22047;BME280;11187;49.412;20.956;2022-09-09T05:47:37;94926.72;;;16.15;100.00
22047;BME280;11187;49.412;20.956;2022-09-09T05:50:11;94928.47;;;16.15;100.00
22047;BME280;11187;49.412;20.956;2022-09-09T05:52:54;94939.63;;;16.15;100.00
22047;BME280;11187;49.412;20.956;2022-09-09T05:55:33;94947.28;;;16.17;100.00
22047;BME280;11187;49.412;20.956;2022-09-09T05:58:07;94943.78;;;16.19;100.00
22047;BME280;11187;49.412;20.956;2022-09-09T06:01:06;94938.50;;;16.21;100.00
22047;BME280;11187;49.412;20.956;2022-09-09T06:03:41;94936.72;;;16.23;100.00
22047;BME280;11187;49.412;20.956;2022-09-09T06:06:34;94937.47;;;16.25;100.00
22047;BME280;11187;49.412;20.956;2022-09-09T06:09:28;94939.22;;;16.24;100.00
22047;BME280;11187;49.412;20.956;2022-09-09T06:12:22;94937.44;;;16.26;100.00
22047;BME280;11187;49.412;20.956;2022-09-09T06:15:16;94937.34;;;16.28;100.00
22047;BME280;11187;49.412;20.956;2022-09-09T06:18:10;94940.78;;;16.28;100.00
22047;BME280;11187;49.412;20.956;2022-09-09T06:21:07;94936.44;;;16.29;100.00
22047;BME280;11187;49.412;20.956;2022-09-09T06:23:42;94941.56;;;16.31;100.00
22047;BME280;11187;49.412;20.956;2022-09-09T06:26:34;94946.63;;;16.32;100.00
22047;BME280;11187;49.412;20.956;2022-09-09T06:29:08;94950.00;;;16.34;100.00
22047;BME280;11187;49.412;20.956;2022-09-09T06:31:55;94952.56;;;16.34;100.00
22047;BME280;11187;49.412;20.956;2022-09-09T06:34:29;94952.53;;;16.36;100.00
22047;BME280;11187;49.412;20.956;2022-09-09T06:37:16;94950.78;;;16.36;100.00
22047;BME280;11187;49.412;20.956;2022-09-09T06:39:50;94944.69;;;16.37;100.00
22047;BME280;11187;49.412;20.956;2022-09-09T06:42:43;94945.53;;;16.38;100.00
22047;BME280;11187;49.412;20.956;2022-09-09T06:45:17;94940.44;;;16.36;100.00
22047;BME280;11187;49.412;20.956;2022-09-09T06:48:10;94948.19;;;16.36;100.00
22047;BME280;11187;49.412;20.956;2022-09-09T06:51:07;94955.03;;;16.37;100.00
22047;BME280;11187;49.412;20.956;2022-09-09T06:54:03;94948.03;;;16.39;100.00
22047;BME280;11187;49.412;20.956;2022-09-09T06:56:39;94945.47;;;16.39;100.00
22047;BME280;11187;49.412;20.956;2022-09-09T06:59:25;94954.06;;;16.40;100.00
22047;BME280;11187;49.412;20.956;2022-09-09T07:01:59;94955.75;;;16.41;100.00
22047;BME280;11187;49.412;20.956;2022-09-09T07:04:45;94951.41;;;16.41;100.00
22047;BME280;11187;49.412;20.956;2022-09-09T07:07:19;94957.34;;;16.43;100.00
22047;BME280;11187;49.412;20.956;2022-09-09T07:10:07;94954.75;;;16.43;100.00
22047;BME280;11187;49.412;20.956;2022-09-09T07:12:40;94952.13;;;16.45;100.00
22047;BME280;11187;49.412;20.956;2022-09-09T07:15:26;94957.28;;;16.45;100.00
22047;BME280;11187;49.412;20.956;2022-09-09T07:18:03;94964.91;;;16.48;100.00
22047;BME280;11187;49.412;20.956;2022-09-09T07:20:58;94964.84;;;16.49;100.00
22047;BME280;11187;49.412;20.956;2022-09-09T07:23:32;94963.09;;;16.50;100.00
22047;BME280;11187;49.412;20.956;2022-09-09T07:26:22;94957.03;;;16.51;100.00
22047;BME280;11187;49.412;20.956;2022-09-09T07:28:56;94956.09;;;16.52;100.00
22047;BME280;11187;49.412;20.956;2022-09-09T07:31:42;94949.13;;;16.54;100.00
22047;BME280;11187;49.412;20.956;2022-09-09T07:34:16;94954.97;;;16.58;100.00
22047;BME280;11187;49.412;20.956;2022-09-09T07:37:02;94957.44;;;16.61;100.00
22047;BME280;11187;49.412;20.956;2022-09-09T07:39:36;94961.69;;;16.62;100.00
22047;BME280;11187;49.412;20.956;2022-09-09T07:42:29;94967.63;;;16.64;100.00
22047;BME280;11187;49.412;20.956;2022-09-09T07:45:03;94960.66;;;16.66;100.00
22047;BME280;11187;49.412;20.956;2022-09-09T07:47:50;94962.22;;;16.70;100.00
22047;BME280;11187;49.412;20.956;2022-09-09T07:50:25;94964.63;;;16.73;100.00
22047;BME280;11187;49.412;20.956;2022-09-09T07:53:18;94961.84;;;16.78;100.00
22047;BME280;11187;49.412;20.956;2022-09-09T07:55:53;94967.56;;;16.86;100.00
22047;BME280;11187;49.412;20.956;2022-09-09T07:58:47;94970.72;;;16.93;100.00
22047;BME280;11187;49.412;20.956;2022-09-09T08:01:51;94980.00;;;16.97;100.00
22047;BME280;11187;49.412;20.956;2022-09-09T08:04:27;94978.19;;;16.99;100.00
22047;BME280;11187;49.412;20.956;2022-09-09T08:07:15;94977.28;;;17.00;100.00
22047;BME280;11187;49.412;20.956;2022-09-09T08:10:08;94980.63;;;17.02;100.00
22047;BME280;11187;49.412;20.956;2022-09-09T08:13:02;94971.13;;;17.02;100.00
22047;BME280;11187;49.412;20.956;2022-09-09T08:15:44;94983.22;;;17.02;100.00
22047;BME280;11187;49.412;20.956;2022-09-09T08:18:30;94983.22;;;17.02;100.00
22047;BME280;11187;49.412;20.956;2022-09-09T08:21:05;94981.47;;;17.02;100.00
22047;BME280;11187;49.412;20.956;2022-09-09T08:24:00;94988.31;;;17.03;100.00
22047;BME280;11187;49.412;20.956;2022-09-09T08:26:54;94989.06;;;17.05;100.00
22047;BME280;11187;49.412;20.956;2022-09-09T08:29:29;94995.16;;;17.04;100.00
22047;BME280;11187;49.412;20.956;2022-09-09T08:32:17;94999.56;;;17.02;100.00
22047;BME280;11187;49.412;20.956;2022-09-09T08:34:52;94996.22;;;17.00;100.00
22047;BME280;11187;49.412;20.956;2022-09-09T08:37:46;94999.78;;;16.98;100.00
22047;BME280;11187;49.412;20.956;2022-09-09T08:40:27;95003.34;;;16.95;100.00
22047;BME280;11187;49.412;20.956;2022-09-09T08:43:16;95008.72;;;16.90;100.00
22047;BME280;11187;49.412;20.956;2022-09-09T08:46:01;95003.56;;;16.90;100.00
22047;BME280;11187;49.412;20.956;2022-09-09T08:51:30;95001.03;;;16.89;100.00
22047;BME280;11187;49.412;20.956;2022-09-09T08:54:18;94997.59;;;16.88;100.00
22047;BME280;11187;49.412;20.956;2022-09-09T08:57:19;94999.22;;;16.91;100.00
22047;BME280;11187;49.412;20.956;2022-09-09T09:00:15;95002.56;;;16.93;100.00
22047;BME280;11187;49.412;20.956;2022-09-09T09:06:35;95010.06;;;16.99;100.00
22047;BME280;11187;49.412;20.956;2022-09-09T09:09:36;95014.31;;;17.00;100.00
22047;BME280;11187;49.412;20.956;2022-09-09T09:12:39;95021.19;;;17.01;100.00
22047;BME280;11187;49.412;20.956;2022-09-09T09:15:37;95018.59;;;17.01;100.00
22047;BME280;11187;49.412;20.956;2022-09-09T09:18:31;95019.44;;;17.02;100.00
22047;BME280;11187;49.412;20.956;2022-09-09T09:21:21;95015.09;;;17.02;100.00
22047;BME280;11187;49.412;20.956;2022-09-09T09:24:19;95015.03;;;17.04;100.00
22047;BME280;11187;49.412;20.956;2022-09-09T09:26:53;95015.03;;;17.04;100.00
22047;BME280;11187;49.412;20.956;2022-09-09T09:29:48;95009.03;;;17.03;100.00
22047;BME280;11187;49.412;20.956;2022-09-09T09:33:08;95015.84;;;17.04;100.00
22047;BME280;11187;49.412;20.956;2022-09-09T09:35:49;95016.69;;;17.05;100.00
22047;BME280;11187;49.412;20.956;2022-09-09T09:38:59;95005.28;;;17.09;100.00
22047;BME280;11187;49.412;20.956;2022-09-09T09:41:53;95015.50;;;17.12;100.00
22047;BME280;11187;49.412;20.956;2022-09-09T09:44:46;95013.78;;;17.13;100.00
22047;BME280;11187;49.412;20.956;2022-09-09T09:47:21;95008.59;;;17.13;100.00
22047;BME280;11187;49.412;20.956;2022-09-09T09:50:19;95019.72;;;17.15;100.00
22047;BME280;11187;49.412;20.956;2022-09-09T09:52:55;95016.22;;;17.16;100.00
22047;BME280;11187;49.412;20.956;2022-09-09T09:55:50;95012.69;;;17.17;100.00
22047;BME280;11187;49.412;20.956;2022-09-09T09:58:27;95008.44;;;17.16;100.00
22047;BME280;11187;49.412;20.956;2022-09-09T10:01:31;95007.63;;;17.15;100.00
22047;BME280;11187;49.412;20.956;2022-09-09T10:04:16;95013.69;;;17.14;100.00
22047;BME280;11187;49.412;20.956;2022-09-09T10:07:21;95012.06;;;17.11;100.00
22047;BME280;11187;49.412;20.956;2022-09-09T10:10:22;95021.59;;;17.11;100.00
22047;BME280;11187;49.412;20.956;2022-09-09T10:19:33;95036.34;;;17.09;100.00
22047;BME280;11187;49.412;20.956;2022-09-09T10:22:32;95041.44;;;17.10;100.00
22047;BME280;11187;49.412;20.956;2022-09-09T10:25:25;95036.28;;;17.10;100.00
22047;BME280;11187;49.412;20.956;2022-09-09T10:34:12;95041.31;;;17.14;100.00
22047;BME280;11187;49.412;20.956;2022-09-09T10:36:56;95040.31;;;17.16;100.00
22047;BME280;11187;49.412;20.956;2022-09-09T10:40:06;95044.44;;;17.20;100.00
22047;BME280;11187;49.412;20.956;2022-09-09T10:52:28;95049.97;;;17.31;100.00
22047;BME280;11187;49.412;20.956;2022-09-09T10:55:27;95041.16;;;17.36;100.00
22047;BME280;11187;49.412;20.956;2022-09-09T10:58:03;95034.09;;;17.39;100.00
22047;BME280;11187;49.412;20.956;2022-09-09T11:01:03;95014.03;;;17.44;100.00
22047;BME280;11187;49.412;20.956;2022-09-09T11:03:41;95010.31;;;17.50;100.00
22047;BME280;11187;49.412;20.956;2022-09-09T11:06:42;95021.44;;;17.52;100.00
22047;BME280;11187;49.412;20.956;2022-09-09T11:09:47;95016.94;;;17.56;100.00
22047;BME280;11187;49.412;20.956;2022-09-09T11:12:45;95027.22;;;17.57;100.00
22047;BME280;11187;49.412;20.956;2022-09-09T11:15:28;95028.03;;;17.58;100.00
22047;BME280;11187;49.412;20.956;2022-09-09T11:18:20;95029.81;;;17.57;100.00
22047;BME280;11187;49.412;20.956;2022-09-09T11:20:59;95030.72;;;17.56;100.00
22047;BME280;11187;49.412;20.956;2022-09-09T11:23:53;95029.91;;;17.56;100.00
22047;BME280;11187;49.412;20.956;2022-09-09T11:26:58;95027.38;;;17.54;100.00
22047;BME280;11187;49.412;20.956;2022-09-09T11:37:17;95036.75;;;17.57;100.00
22047;BME280;11187;49.412;20.956;2022-09-09T11:39:31;95038.50;;;17.56;100.00
22047;BME280;11187;49.412;20.956;2022-09-09T11:42:30;95033.31;;;17.56;100.00
22047;BME280;11187;49.412;20.956;2022-09-09T11:45:26;95034.16;;;17.57;100.00
22047;BME280;11187;49.412;20.956;2022-09-09T11:48:25;95041.84;;;17.58;100.00
22047;BME280;11187;49.412;20.956;2022-09-09T11:51:07;95037.50;;;17.59;100.00
22047;BME280;11187;49.412;20.956;2022-09-09T11:54:00;95034.84;;;17.60;100.00
22047;BME280;11187;49.412;20.956;2022-09-09T11:59:30;95033.78;;;17.64;100.00
22047;BME280;11187;49.412;20.956;2022-09-09T12:02:21;95044.13;;;17.64;100.00
22047;BME280;11187;49.412;20.956;2022-09-09T12:05:12;95049.31;;;17.64;100.00
22047;BME280;11187;49.412;20.956;2022-09-09T12:07:55;95052.75;;;17.65;100.00
22047;BME280;11187;49.412;20.956;2022-09-09T12:10:53;95045.75;;;17.67;100.00
22047;BME280;11187;49.412;20.956;2022-09-09T12:13:27;95043.03;;;17.70;100.00
22047;BME280;11187;49.412;20.956;2022-09-09T12:16:31;95038.59;;;17.72;100.00
22047;BME280;11187;49.412;20.956;2022-09-09T12:19:20;95038.44;;;17.75;100.00
22047;BME280;11187;49.412;20.956;2022-09-09T12:29:16;95041.75;;;17.79;100.00
22047;BME280;11187;49.412;20.956;2022-09-09T12:32:16;95045.09;;;17.81;100.00
22047;BME280;11187;49.412;20.956;2022-09-09T12:34:55;95044.22;;;17.82;100.00
22047;BME280;11187;49.412;20.956;2022-09-09T12:37:56;95045.91;;;17.83;100.00
22047;BME280;11187;49.412;20.956;2022-09-09T12:40:55;95036.28;;;17.85;100.00
22047;BME280;11187;49.412;20.956;2022-09-09T12:43:30;95030.97;;;17.88;100.00
22047;BME280;11187;49.412;20.956;2022-09-09T12:46:39;95036.06;;;17.89;100.00
22047;BME280;11187;49.412;20.956;2022-09-09T12:49:36;95036.06;;;17.89;100.00
22047;BME280;11187;49.412;20.956;2022-09-09T12:52:33;95009.19;;;17.92;100.00
22047;BME280;11187;49.412;20.956;2022-09-09T12:55:16;95009.88;;;17.95;100.00
22047;BME280;11187;49.412;20.956;2022-09-09T12:58:06;95021.81;;;17.98;100.00
22047;BME280;11187;49.412;20.956;2022-09-09T13:00:49;95026.72;;;18.04;100.00
22047;BME280;11187;49.412;20.956;2022-09-09T13:03:43;95025.66;;;18.08;100.00
22047;BME280;11187;49.412;20.956;2022-09-09T13:06:36;95025.50;;;18.11;100.00
22047;BME280;11187;49.412;20.956;2022-09-09T13:09:10;95021.84;;;18.15;100.00
22047;BME280;11187;49.412;20.956;2022-09-09T13:11:57;95023.50;;;18.16;100.00
22047;BME280;11187;49.412;20.956;2022-09-09T13:14:34;95020.03;;;18.18;100.00
22047;BME280;11187;49.412;20.956;2022-09-09T13:17:25;95015.75;;;18.16;100.00
22047;BME280;11187;49.412;20.956;2022-09-09T13:20:01;95006.31;;;18.15;100.00
22047;BME280;11187;49.412;20.956;2022-09-09T13:22:49;95001.13;;;18.15;100.00
22047;BME280;11187;49.412;20.956;2022-09-09T13:25:25;95000.28;;;18.15;100.00
22047;BME280;11187;49.412;20.956;2022-09-09T13:28:20;95002.03;;;18.14;100.00
22047;BME280;11187;49.412;20.956;2022-09-09T13:31:04;95002.13;;;18.13;100.00
22047;BME280;11187;49.412;20.956;2022-09-09T13:33:52;95002.19;;;18.11;100.00
22047;BME280;11187;49.412;20.956;2022-09-09T13:36:31;94997.94;;;18.10;100.00
22047;BME280;11187;49.412;20.956;2022-09-09T13:39:25;94990.22;;;18.09;100.00
22047;BME280;11187;49.412;20.956;2022-09-09T13:41:59;94988.56;;;18.08;100.00
22047;BME280;11187;49.412;20.956;2022-09-09T13:44:55;94981.69;;;18.07;100.00
22047;BME280;11187;49.412;20.956;2022-09-09T13:47:34;94978.25;;;18.06;100.00
22047;BME280;11187;49.412;20.956;2022-09-09T13:50:29;94979.16;;;18.05;100.00
22047;BME280;11187;49.412;20.956;2022-09-09T13:53:02;94981.91;;;18.02;100.00
22047;BME280;11187;49.412;20.956;2022-09-09T13:55:49;94973.31;;;18.02;100.00
22047;BME280;11187;49.412;20.956;2022-09-09T13:58:24;94962.94;;;18.02;100.00
22047;BME280;11187;49.412;20.956;2022-09-09T14:01:12;94959.59;;;18.00;100.00
22047;BME280;11187;49.412;20.956;2022-09-09T14:03:45;94962.13;;;18.01;100.00
22047;BME280;11187;49.412;20.956;2022-09-09T14:06:37;94956.06;;;18.01;100.00
22047;BME280;11187;49.412;20.956;2022-09-09T14:09:13;94963.78;;;18.02;100.00
22047;BME280;11187;49.412;20.956;2022-09-09T14:12:00;94961.19;;;18.02;100.00
22047;BME280;11187;49.412;20.956;2022-09-09T14:14:33;94960.34;;;18.02;100.00
22047;BME280;11187;49.412;20.956;2022-09-09T14:17:28;94959.66;;;17.98;100.00
22047;BME280;11187;49.412;20.956;2022-09-09T14:20:05;94957.94;;;17.99;100.00
22047;BME280;11187;49.412;20.956;2022-09-09T14:22:55;94959.75;;;17.97;100.00
22047;BME280;11187;49.412;20.956;2022-09-09T14:25:30;94955.41;;;17.97;100.00
22047;BME280;11187;49.412;20.956;2022-09-09T14:28:24;94962.34;;;17.97;100.00
22047;BME280;11187;49.412;20.956;2022-09-09T14:31:34;94961.47;;;17.96;100.00
22047;BME280;11187;49.412;20.956;2022-09-09T14:34:07;94964.94;;;17.97;100.00
22047;BME280;11187;49.412;20.956;2022-09-09T14:37:01;94964.06;;;17.96;100.00
22047;BME280;11187;49.412;20.956;2022-09-09T14:39:34;94964.94;;;17.97;100.00
22047;BME280;11187;49.412;20.956;2022-09-09T14:42:30;94965.00;;;17.95;100.00
22047;BME280;11187;49.412;20.956;2022-09-09T14:45:24;94974.44;;;17.96;100.00
22047;BME280;11187;49.412;20.956;2022-09-09T14:48:18;94964.00;;;17.98;100.00
22047;BME280;11187;49.412;20.956;2022-09-09T14:50:52;94959.66;;;17.98;100.00
22047;BME280;11187;49.412;20.956;2022-09-09T14:53:40;94966.53;;;17.99;100.00
22047;BME280;11187;49.412;20.956;2022-09-09T14:56:18;94962.19;;;18.00;100.00
22047;BME280;11187;49.412;20.956;2022-09-09T14:59:13;94959.66;;;17.98;100.00
22047;BME280;11187;49.412;20.956;2022-09-09T15:02:10;94952.66;;;18.00;100.00
22047;BME280;11187;49.412;20.956;2022-09-09T15:04:43;94957.78;;;18.02;100.00
22047;BME280;11187;49.412;20.956;2022-09-09T15:07:30;94951.75;;;18.01;100.00
22047;BME280;11187;49.412;20.956;2022-09-09T15:10:18;94960.44;;;18.00;100.00
22047;BME280;11187;49.412;20.956;2022-09-09T15:13:12;94963.94;;;17.99;100.00
22047;BME280;11187;49.412;20.956;2022-09-09T15:16:17;94952.75;;;17.99;100.00
22047;BME280;11187;49.412;20.956;2022-09-09T15:18:52;94946.72;;;17.98;100.00
22047;BME280;11187;49.412;20.956;2022-09-09T15:21:47;94954.56;;;17.97;100.00
22047;BME280;11187;49.412;20.956;2022-09-09T15:24:20;94958.06;;;17.95;100.00
22047;BME280;11187;49.412;20.956;2022-09-09T15:27:07;94954.81;;;17.92;100.00
22047;BME280;11187;49.412;20.956;2022-09-09T15:29:40;94956.63;;;17.90;100.00
22047;BME280;11187;49.412;20.956;2022-09-09T15:32:27;94962.72;;;17.89;100.00
22047;BME280;11187;49.412;20.956;2022-09-09T15:35:00;94960.22;;;17.87;99.58
22047;BME280;11187;49.412;20.956;2022-09-09T15:37:47;94958.47;;;17.88;100.00
22047;BME280;11187;49.412;20.956;2022-09-09T15:40:20;94955.09;;;17.86;99.49
22047;BME280;11187;49.412;20.956;2022-09-09T15:43:14;94958.53;;;17.86;100.00
22047;BME280;11187;49.412;20.956;2022-09-09T15:46:22;94955.09;;;17.86;99.77
22047;BME280;11187;49.412;20.956;2022-09-09T15:49:15;94960.28;;;17.86;100.00